createdAt,value
2018-12-18T00:02:09.075Z,33.20
2018-12-18T00:04:36.928Z,34.53
2018-12-18T00:07:07.242Z,32.00
2018-12-18T00:09:35.328Z,33.27
2018-12-18T00:12:03.191Z,32.53
2018-12-18T00:14:31.008Z,30.90
2018-12-18T00:16:59.354Z,31.50
2018-12-18T00:22:08.954Z,31.50
2018-12-18T00:24:37.689Z,35.60
2018-12-18T00:27:05.749Z,32.63
2018-12-18T00:29:33.639Z,30.40
2018-12-18T00:32:01.704Z,30.47
2018-12-18T00:34:29.527Z,31.67
2018-12-18T00:36:58.624Z,30.13
2018-12-18T00:39:26.532Z,32.73
2018-12-18T00:41:57.041Z,29.70
2018-12-18T00:44:25.162Z,32.23
2018-12-18T00:46:53.186Z,31.80
2018-12-18T00:49:21.061Z,27.53
2018-12-18T00:51:48.871Z,30.27
2018-12-18T00:54:16.802Z,30.93
2018-12-18T00:56:44.794Z,27.13
2018-12-18T00:59:12.650Z,31.77
2018-12-18T01:01:42.619Z,28.63
2018-12-18T01:04:10.497Z,30.97
2018-12-18T01:06:38.417Z,30.90
2018-12-18T01:09:06.650Z,30.63
2018-12-18T01:11:34.921Z,28.17
2018-12-18T01:14:03.009Z,31.43
2018-12-18T01:16:31.059Z,29.90
2018-12-18T01:18:58.914Z,28.83
2018-12-18T01:21:26.784Z,30.70
2018-12-18T01:23:54.583Z,27.47
2018-12-18T01:26:22.957Z,28.73
2018-12-18T01:28:51.038Z,29.70
2018-12-18T01:31:19.274Z,27.53
2018-12-18T01:33:47.145Z,29.10
2018-12-18T01:36:15.173Z,28.00
2018-12-18T01:38:42.984Z,30.17
2018-12-18T01:41:31.508Z,31.23
2018-12-18T01:43:59.453Z,32.37
2018-12-18T01:46:27.287Z,32.80
2018-12-18T01:48:55.212Z,29.43
2018-12-18T01:51:23.271Z,29.27
2018-12-18T01:53:51.313Z,26.27
2018-12-18T01:56:19.407Z,29.33
2018-12-18T01:58:47.224Z,28.30
2018-12-18T02:01:15.568Z,25.40
2018-12-18T02:03:43.695Z,27.03
2018-12-18T02:06:11.847Z,26.00
2018-12-18T02:08:39.941Z,27.10
2018-12-18T02:11:08.174Z,25.23
2018-12-18T02:13:36.538Z,24.40
2018-12-18T02:16:04.455Z,25.43
2018-12-18T02:18:32.513Z,23.47
2018-12-18T02:21:00.523Z,22.83
2018-12-18T02:23:28.575Z,23.63
2018-12-18T02:25:56.695Z,21.93
2018-12-18T02:28:24.578Z,23.93
2018-12-18T02:30:52.821Z,21.87
2018-12-18T02:33:20.860Z,21.77
2018-12-18T02:35:49.122Z,22.57
2018-12-18T02:38:17.244Z,20.90
2018-12-18T02:40:45.221Z,22.67
2018-12-18T02:43:13.028Z,21.33
2018-12-18T02:45:41.403Z,20.27
2018-12-18T02:48:09.710Z,22.23
2018-12-18T02:50:37.756Z,22.80
2018-12-18T02:53:05.836Z,21.90
2018-12-18T02:55:33.683Z,23.13
2018-12-18T02:58:01.726Z,24.40
2018-12-18T03:00:29.545Z,25.83
2018-12-18T03:03:02.126Z,27.40
2018-12-18T03:05:30.089Z,24.03
2018-12-18T03:07:58.229Z,22.40
2018-12-18T03:10:26.131Z,25.03
2018-12-18T03:12:54.643Z,24.57
2018-12-18T03:15:22.456Z,25.80
2018-12-18T03:17:50.363Z,24.10
2018-12-18T03:20:18.435Z,24.00
2018-12-18T03:22:46.493Z,24.50
2018-12-18T03:25:14.544Z,21.20
2018-12-18T03:27:43.875Z,20.97
2018-12-18T03:30:11.711Z,21.60
2018-12-18T03:32:46.173Z,21.80
2018-12-18T03:35:14.213Z,22.17
2018-12-18T03:37:42.272Z,22.10
2018-12-18T03:40:10.167Z,21.07
2018-12-18T03:42:38.254Z,21.93
2018-12-18T03:45:06.636Z,21.73
2018-12-18T03:47:34.576Z,24.10
2018-12-18T03:50:02.527Z,23.17
2018-12-18T03:52:30.520Z,22.77
2018-12-18T03:54:58.339Z,23.83
2018-12-18T03:57:26.431Z,24.27
2018-12-18T03:59:54.541Z,24.37
2018-12-18T04:02:22.579Z,23.20
2018-12-18T04:04:50.448Z,22.67
2018-12-18T04:07:18.728Z,24.13
2018-12-18T04:09:46.578Z,25.77
2018-12-18T04:12:19.941Z,25.33
2018-12-18T04:14:47.848Z,22.90
2018-12-18T04:17:16.116Z,25.13
2018-12-18T04:19:43.971Z,28.03
2018-12-18T04:22:12.015Z,29.00
2018-12-18T04:24:52.810Z,28.77
2018-12-18T04:27:20.753Z,26.67
2018-12-18T04:29:48.553Z,26.67
2018-12-18T04:32:16.393Z,31.10
2018-12-18T04:34:46.413Z,25.97
2018-12-18T04:37:14.466Z,31.40
2018-12-18T04:39:42.354Z,25.33
2018-12-18T04:42:10.422Z,26.13
2018-12-18T04:44:38.245Z,25.93
2018-12-18T04:47:06.552Z,25.53
2018-12-18T04:49:34.450Z,25.93
2018-12-18T04:52:02.319Z,24.57
2018-12-18T04:54:30.386Z,24.70
2018-12-18T04:56:58.625Z,22.23
2018-12-18T04:59:26.707Z,21.63
2018-12-18T05:01:54.964Z,21.00
2018-12-18T05:04:22.838Z,19.93
2018-12-18T05:06:50.937Z,20.17
2018-12-18T05:09:18.964Z,20.83
2018-12-18T05:11:47.111Z,20.80
2018-12-18T05:14:15.106Z,23.53
2018-12-18T05:16:43.124Z,21.77
2018-12-18T05:19:10.937Z,20.03
2018-12-18T05:21:39.126Z,18.80
2018-12-18T05:24:06.956Z,16.17
2018-12-18T05:26:34.785Z,16.97
2018-12-18T05:29:02.748Z,16.77
2018-12-18T05:31:30.829Z,17.10
2018-12-18T05:33:58.862Z,16.73
2018-12-18T05:36:27.972Z,16.23
2018-12-18T05:38:55.821Z,16.13
2018-12-18T05:41:24.970Z,14.97
2018-12-18T05:43:52.935Z,16.03
2018-12-18T05:46:20.814Z,13.60
2018-12-18T05:48:49.334Z,15.40
2018-12-18T05:51:17.311Z,13.53
2018-12-18T05:53:45.253Z,15.67
2018-12-18T05:56:13.277Z,13.73
2018-12-18T05:58:41.142Z,13.17
2018-12-18T06:01:09.462Z,15.03
2018-12-18T06:03:37.333Z,14.03
2018-12-18T06:06:05.572Z,12.50
2018-12-18T06:08:33.596Z,13.10
2018-12-18T06:11:01.488Z,15.83
2018-12-18T06:13:29.429Z,13.47
2018-12-18T06:15:57.491Z,13.00
2018-12-18T06:18:25.312Z,11.87
2018-12-18T06:20:53.190Z,12.47
2018-12-18T06:23:21.266Z,14.63
2018-12-18T06:25:49.092Z,12.80
2018-12-18T06:28:17.213Z,12.87
2018-12-18T06:30:45.305Z,10.63
2018-12-18T06:33:13.166Z,16.23
2018-12-18T06:35:41.226Z,12.63
2018-12-18T06:38:09.058Z,12.13
2018-12-18T06:40:37.175Z,11.77
2018-12-18T06:43:05.005Z,10.87
2018-12-18T06:48:15.478Z,11.57
2018-12-18T06:50:43.375Z,11.87
2018-12-18T06:53:11.621Z,12.77
2018-12-18T06:55:39.906Z,11.30
2018-12-18T06:58:07.990Z,11.33
2018-12-18T07:00:35.847Z,12.33
2018-12-18T07:03:04.923Z,14.90
2018-12-18T07:05:32.963Z,12.03
2018-12-18T07:08:01.903Z,11.30
2018-12-18T07:10:29.806Z,10.37
2018-12-18T07:12:57.603Z,10.30
2018-12-18T07:15:25.545Z,11.77
2018-12-18T07:17:53.374Z,10.87
2018-12-18T07:20:21.208Z,10.73
2018-12-18T07:22:48.942Z,10.90
2018-12-18T07:25:16.717Z,10.63
2018-12-18T07:27:44.407Z,10.30
2018-12-18T07:30:12.222Z,10.37
2018-12-18T07:32:39.965Z,10.00
2018-12-18T07:35:07.740Z,10.60
2018-12-18T07:37:35.493Z,12.25
2018-12-18T07:40:03.845Z,11.33
2018-12-18T07:42:31.590Z,9.60
2018-12-18T07:44:59.462Z,9.77
2018-12-18T07:47:28.060Z,10.43
2018-12-18T07:49:57.034Z,10.80
2018-12-18T07:52:24.753Z,10.33
2018-12-18T07:54:52.590Z,11.60
2018-12-18T07:57:20.320Z,11.00
2018-12-18T07:59:48.115Z,9.80
2018-12-18T08:02:15.873Z,11.63
2018-12-18T08:04:50.682Z,11.03
2018-12-18T08:07:18.524Z,10.60
2018-12-18T08:09:46.550Z,9.27
2018-12-18T08:12:14.608Z,9.87
2018-12-18T08:14:42.687Z,10.20
2018-12-18T08:17:10.945Z,9.20
2018-12-18T08:19:38.826Z,9.63
2018-12-18T08:22:06.880Z,9.37
2018-12-18T08:24:34.833Z,7.97
2018-12-18T08:27:02.687Z,8.07
2018-12-18T08:29:38.511Z,8.63
2018-12-18T08:32:06.540Z,8.73
2018-12-18T08:34:34.606Z,8.53
2018-12-18T08:37:02.473Z,7.27
2018-12-18T08:39:30.536Z,7.80
2018-12-18T08:41:58.619Z,6.53
2018-12-18T08:44:26.616Z,6.43
2018-12-18T08:46:54.579Z,7.90
2018-12-18T08:49:22.460Z,7.27
2018-12-18T08:51:50.535Z,7.73
2018-12-18T08:54:18.583Z,7.77
2018-12-18T08:56:46.655Z,8.50
2018-12-18T08:59:14.689Z,7.77
2018-12-18T09:01:42.874Z,8.33
2018-12-18T09:04:10.852Z,8.43
2018-12-18T09:06:39.122Z,6.90
2018-12-18T09:09:07.406Z,7.47
2018-12-18T09:11:35.494Z,8.60
2018-12-18T09:14:03.540Z,7.03
2018-12-18T09:16:37.046Z,7.23
2018-12-18T09:19:04.823Z,8.33
2018-12-18T09:21:33.253Z,9.43
2018-12-18T09:24:01.178Z,7.33
2018-12-18T09:26:28.986Z,7.33
2018-12-18T09:28:56.760Z,6.43
2018-12-18T09:31:24.748Z,5.90
2018-12-18T09:33:52.637Z,6.17
2018-12-18T09:36:20.670Z,7.40
2018-12-18T09:38:54.208Z,6.87
2018-12-18T09:41:25.299Z,7.70
2018-12-18T09:43:58.181Z,7.93
2018-12-18T09:46:32.967Z,8.33
2018-12-18T09:49:00.805Z,7.63
2018-12-18T09:51:28.629Z,7.13
2018-12-18T09:53:56.427Z,7.70
2018-12-18T09:56:24.161Z,8.30
2018-12-18T09:58:51.873Z,6.47
2018-12-18T10:01:19.639Z,7.67
2018-12-18T10:03:47.508Z,7.27
2018-12-18T10:06:15.379Z,6.83
2018-12-18T10:08:43.089Z,7.90
2018-12-18T10:11:10.965Z,6.50
2018-12-18T10:13:38.698Z,6.17
2018-12-18T10:16:06.438Z,5.93
2018-12-18T10:18:34.192Z,6.90
2018-12-18T10:21:01.856Z,5.83
2018-12-18T10:23:29.615Z,7.33
2018-12-18T10:25:57.312Z,7.03
2018-12-18T10:28:25.135Z,7.07
2018-12-18T10:30:56.553Z,5.50
2018-12-18T10:33:24.625Z,6.37
2018-12-18T10:35:52.479Z,6.30
2018-12-18T10:38:20.299Z,5.80
2018-12-18T10:40:48.201Z,5.77
2018-12-18T10:43:16.067Z,6.60
2018-12-18T10:45:44.131Z,7.43
2018-12-18T10:48:12.218Z,5.73
2018-12-18T10:50:40.072Z,5.47
2018-12-18T10:53:07.958Z,5.80
2018-12-18T10:55:36.026Z,5.73
2018-12-18T10:58:04.089Z,4.83
2018-12-18T11:00:37.614Z,6.27
2018-12-18T11:03:05.593Z,5.40
2018-12-18T11:05:33.436Z,5.87
2018-12-18T11:08:01.252Z,4.93
2018-12-18T11:10:29.185Z,5.00
2018-12-18T11:13:03.773Z,5.73
2018-12-18T11:15:31.972Z,5.17
2018-12-18T11:17:59.898Z,5.17
2018-12-18T11:20:27.722Z,5.43
2018-12-18T11:22:55.923Z,4.27
2018-12-18T11:25:23.953Z,3.93
2018-12-18T11:27:51.995Z,4.47
2018-12-18T11:30:19.786Z,3.60
2018-12-18T11:32:47.957Z,4.70
2018-12-18T11:35:15.811Z,4.77
2018-12-18T11:37:44.681Z,5.47
2018-12-18T11:40:14.033Z,4.40
2018-12-18T11:42:41.844Z,4.67
2018-12-18T11:45:09.795Z,5.50
2018-12-18T11:47:37.574Z,5.00
2018-12-18T11:50:05.744Z,4.23
2018-12-18T11:52:33.546Z,4.20
2018-12-18T11:55:01.810Z,4.83
2018-12-18T11:57:29.690Z,4.83
2018-12-18T11:59:57.734Z,4.77
2018-12-18T12:02:25.817Z,4.70
2018-12-18T12:04:53.887Z,4.83
2018-12-18T12:07:21.770Z,5.97
2018-12-18T12:09:50.022Z,5.10
2018-12-18T12:12:17.905Z,3.63
2018-12-18T12:14:46.215Z,4.20
2018-12-18T12:17:14.280Z,4.30
2018-12-18T12:19:42.309Z,3.97
2018-12-18T12:22:10.177Z,3.50
2018-12-18T12:24:38.266Z,3.00
2018-12-18T12:27:11.751Z,3.50
2018-12-18T12:29:39.581Z,3.57
2018-12-18T12:32:07.380Z,2.90
2018-12-18T12:34:35.280Z,3.30
2018-12-18T12:37:03.126Z,2.90
2018-12-18T12:39:30.937Z,2.67
2018-12-18T12:41:58.743Z,3.03
2018-12-18T12:44:26.621Z,2.50
2018-12-18T12:46:54.412Z,2.57
2018-12-18T12:49:26.768Z,2.57
2018-12-18T12:51:54.736Z,2.20
2018-12-18T12:54:22.886Z,2.20
2018-12-18T12:56:50.763Z,2.13
2018-12-18T12:59:18.627Z,1.70
2018-12-18T13:01:46.474Z,1.87
2018-12-18T13:04:14.367Z,2.03
2018-12-18T13:06:42.216Z,1.83
2018-12-18T13:09:10.291Z,2.70
2018-12-18T13:11:38.332Z,1.77
2018-12-18T13:14:06.415Z,2.07
2018-12-18T13:16:34.521Z,1.70
2018-12-18T13:19:02.566Z,1.67
2018-12-18T13:21:30.377Z,1.40
2018-12-18T13:23:59.565Z,1.63
2018-12-18T13:26:27.623Z,1.13
2018-12-18T13:28:55.689Z,0.93
2018-12-18T13:31:23.784Z,1.00
2018-12-18T13:33:51.810Z,0.70
2018-12-18T13:36:19.608Z,0.73
2018-12-18T13:38:47.515Z,0.80
2018-12-18T13:41:15.379Z,0.80
2018-12-18T13:43:43.403Z,0.90
2018-12-18T13:46:15.022Z,1.10
2018-12-18T13:48:41.030Z,0.60
2018-12-18T13:51:09.112Z,1.00
2018-12-18T13:53:36.975Z,0.53
2018-12-18T13:56:05.042Z,0.60
2018-12-18T13:58:32.870Z,0.70
2018-12-18T14:01:00.750Z,0.67
2018-12-18T14:03:28.621Z,0.83
2018-12-18T14:05:56.473Z,0.60
2018-12-18T14:08:24.273Z,1.17
2018-12-18T14:10:52.125Z,1.20
2018-12-18T14:13:19.948Z,0.73
2018-12-18T14:15:48.409Z,0.80
2018-12-18T14:18:16.511Z,0.80
2018-12-18T14:20:44.531Z,1.13
2018-12-18T14:23:12.344Z,0.73
2018-12-18T14:25:40.637Z,1.37
2018-12-18T14:28:08.551Z,0.73
2018-12-18T14:30:36.562Z,1.33
2018-12-18T14:33:04.458Z,3.60
2018-12-18T14:35:32.506Z,3.17
2018-12-18T14:38:00.361Z,1.80
2018-12-18T14:40:28.554Z,2.77
2018-12-18T14:42:56.549Z,0.70
2018-12-18T14:45:24.894Z,0.50
2018-12-18T14:47:53.070Z,0.77
2018-12-18T14:50:21.389Z,0.80
2018-12-18T14:52:49.297Z,0.60
2018-12-18T14:55:17.298Z,0.60
2018-12-18T14:57:45.332Z,0.40
2018-12-18T15:00:13.865Z,0.70
2018-12-18T15:02:42.361Z,1.10
2018-12-18T15:05:10.396Z,0.90
2018-12-18T15:07:43.622Z,0.63
2018-12-18T15:10:13.444Z,0.50
2018-12-18T15:12:47.133Z,0.60
2018-12-18T15:15:14.974Z,0.70
2018-12-18T15:17:43.381Z,0.57
2018-12-18T15:20:12.740Z,0.53
2018-12-18T15:22:41.017Z,0.60
2018-12-18T15:25:08.858Z,0.90
2018-12-18T15:27:36.689Z,1.50
2018-12-18T15:30:05.746Z,1.13
2018-12-18T15:32:34.060Z,0.60
2018-12-18T15:35:02.138Z,0.60
2018-12-18T15:37:30.361Z,0.70
2018-12-18T15:39:58.312Z,0.60
2018-12-18T15:42:26.582Z,0.80
2018-12-18T15:44:54.679Z,0.50
2018-12-18T15:47:22.583Z,0.50
2018-12-18T15:49:50.809Z,0.50
2018-12-18T15:52:18.924Z,0.40
2018-12-18T15:54:46.752Z,0.93
2018-12-18T15:57:14.603Z,0.67
2018-12-18T15:59:42.439Z,0.77
2018-12-18T16:02:10.330Z,0.57
2018-12-18T16:04:38.408Z,0.53
2018-12-18T16:07:06.504Z,0.53
2018-12-18T16:09:34.557Z,0.37
2018-12-18T16:12:02.623Z,1.17
2018-12-18T16:14:30.705Z,1.53
2018-12-18T16:16:58.506Z,0.90
2018-12-18T16:19:26.802Z,0.60
2018-12-18T16:21:54.813Z,0.60
2018-12-18T16:24:23.895Z,0.80
2018-12-18T16:26:51.895Z,0.50
2018-12-18T16:29:20.004Z,0.60
2018-12-18T16:31:48.135Z,0.70
2018-12-18T16:34:16.297Z,1.10
2018-12-18T16:36:44.332Z,0.90
2018-12-18T16:39:12.428Z,0.60
2018-12-18T16:41:40.330Z,1.10
2018-12-18T16:44:08.463Z,0.83
2018-12-18T16:46:36.419Z,0.50
2018-12-18T16:49:04.298Z,0.60
2018-12-18T16:51:32.571Z,0.93
2018-12-18T16:54:00.549Z,0.50
2018-12-18T16:56:28.509Z,0.50
2018-12-18T16:58:56.598Z,0.90
2018-12-18T17:01:24.630Z,1.20
2018-12-18T17:03:52.484Z,2.17
2018-12-18T17:06:20.539Z,0.93
2018-12-18T17:08:48.622Z,1.57
2018-12-18T17:11:16.728Z,2.87
2018-12-18T17:13:44.568Z,2.93
2018-12-18T17:16:12.564Z,2.03
2018-12-18T17:18:40.503Z,0.80
2018-12-18T17:21:08.352Z,0.43
2018-12-18T17:23:36.476Z,0.70
2018-12-18T17:26:04.492Z,0.60
2018-12-18T17:28:32.276Z,0.40
2018-12-18T17:31:00.146Z,0.80
2018-12-18T17:33:28.032Z,1.30
2018-12-18T17:35:55.955Z,0.80
2018-12-18T17:38:23.767Z,2.10
2018-12-18T17:40:51.911Z,0.90
2018-12-18T17:43:20.626Z,1.23
2018-12-18T17:45:48.679Z,1.30
2018-12-18T17:48:16.937Z,0.83
2018-12-18T17:50:44.808Z,0.53
2018-12-18T17:53:12.678Z,0.70
2018-12-18T17:55:40.570Z,0.60
2018-12-18T17:58:08.868Z,0.63
2018-12-18T18:00:38.808Z,0.80
2018-12-18T18:03:07.348Z,0.50
2018-12-18T18:05:35.266Z,0.70
2018-12-18T18:08:03.364Z,0.90
2018-12-18T18:10:31.220Z,0.63
2018-12-18T18:12:59.122Z,1.37
2018-12-18T18:15:26.986Z,1.03
2018-12-18T18:17:54.915Z,0.70
2018-12-18T18:20:22.946Z,0.70
2018-12-18T18:22:52.578Z,0.73
2018-12-18T18:25:20.634Z,1.10
2018-12-18T18:27:48.502Z,1.10
2018-12-18T18:30:16.379Z,0.70
2018-12-18T18:32:44.465Z,1.10
2018-12-18T18:35:12.551Z,0.90
2018-12-18T18:37:40.548Z,1.17
2018-12-18T18:40:08.710Z,1.00
2018-12-18T18:42:36.763Z,1.20
2018-12-18T18:45:05.010Z,0.90
2018-12-18T18:47:33.479Z,1.00
2018-12-18T18:50:01.945Z,0.73
2018-12-18T18:52:30.042Z,1.10
2018-12-18T18:54:57.882Z,1.30
2018-12-18T18:57:25.734Z,1.17
2018-12-18T18:59:53.593Z,2.00
2018-12-18T19:02:21.421Z,1.30
2018-12-18T19:04:49.263Z,1.30
2018-12-18T19:07:17.096Z,1.17
2018-12-18T19:09:44.998Z,0.80
2018-12-18T19:12:12.816Z,1.43
2018-12-18T19:14:40.651Z,1.17
2018-12-18T19:17:08.816Z,1.03
2018-12-18T19:19:36.668Z,3.27
2018-12-18T19:22:04.796Z,3.37
2018-12-18T19:24:32.905Z,3.63
2018-12-18T19:27:00.962Z,5.67
2018-12-18T19:29:29.233Z,8.37
2018-12-18T19:31:57.098Z,3.70
2018-12-18T19:34:25.231Z,1.40
2018-12-18T19:36:53.790Z,1.10
2018-12-18T19:39:22.106Z,1.27
2018-12-18T19:41:50.234Z,1.43
2018-12-18T19:44:18.278Z,0.90
2018-12-18T19:46:46.148Z,1.13
2018-12-18T19:49:14.217Z,1.20
2018-12-18T19:51:42.107Z,1.73
2018-12-18T19:54:09.943Z,2.50
2018-12-18T19:56:37.855Z,4.30
2018-12-18T19:59:10.764Z,7.30
2018-12-18T20:01:35.790Z,12.20
2018-12-18T20:04:03.741Z,10.60
2018-12-18T20:06:31.884Z,10.93
2018-12-18T20:08:59.809Z,8.37
2018-12-18T20:11:28.083Z,7.73
2018-12-18T20:13:55.928Z,6.03
2018-12-18T20:16:24.067Z,1.87
2018-12-18T20:18:52.316Z,2.40
2018-12-18T20:21:20.213Z,3.10
2018-12-18T20:23:48.226Z,2.77
2018-12-18T20:26:16.265Z,3.17
2018-12-18T20:28:44.319Z,6.43
2018-12-18T20:31:12.247Z,7.17
2018-12-18T20:33:40.312Z,4.57
2018-12-18T20:36:09.601Z,2.17
2018-12-18T20:38:37.423Z,2.10
2018-12-18T20:41:05.513Z,2.33
2018-12-18T20:43:33.439Z,2.90
2018-12-18T20:46:01.483Z,2.30
2018-12-18T20:48:29.308Z,5.40
2018-12-18T20:50:57.217Z,3.73
2018-12-18T20:53:25.121Z,4.43
2018-12-18T20:55:52.928Z,4.73
2018-12-18T20:58:20.954Z,4.97
2018-12-18T21:00:48.886Z,3.90
2018-12-18T21:03:16.975Z,3.00
2018-12-18T21:05:44.824Z,4.47
2018-12-18T21:08:12.952Z,4.80
2018-12-18T21:10:40.806Z,3.60
2018-12-18T21:13:14.341Z,2.67
2018-12-18T21:15:42.217Z,2.43
2018-12-18T21:18:10.135Z,2.27
2018-12-18T21:20:38.362Z,2.33
2018-12-18T21:23:06.471Z,1.70
2018-12-18T21:25:34.485Z,0.93
2018-12-18T21:28:02.981Z,0.90
2018-12-18T21:30:30.828Z,1.27
2018-12-18T21:32:59.097Z,1.10
2018-12-18T21:35:26.903Z,1.27
2018-12-18T21:37:55.023Z,1.37
2018-12-18T21:40:22.875Z,1.33
2018-12-18T21:42:50.755Z,1.77
2018-12-18T21:45:18.603Z,2.50
2018-12-18T21:47:46.692Z,2.43
2018-12-18T21:50:14.657Z,2.50
2018-12-18T21:52:42.657Z,2.63
2018-12-18T21:55:10.700Z,2.50
2018-12-18T21:57:38.548Z,2.00
2018-12-18T22:00:07.409Z,1.90
2018-12-18T22:02:35.317Z,2.73
2018-12-18T22:05:04.147Z,2.07
2018-12-18T22:07:33.328Z,1.73
2018-12-18T22:10:01.813Z,2.20
2018-12-18T22:12:29.652Z,2.37
2018-12-18T22:14:57.724Z,2.10
2018-12-18T22:17:25.576Z,1.70
2018-12-18T22:19:53.853Z,2.00
2018-12-18T22:22:21.956Z,2.20
2018-12-18T22:24:50.002Z,1.67
2018-12-18T22:27:17.917Z,1.70
2018-12-18T22:29:49.221Z,1.67
2018-12-18T22:32:17.187Z,1.53
2018-12-18T22:34:45.171Z,1.17
2018-12-18T22:37:14.419Z,1.50
2018-12-18T22:39:42.677Z,1.70
2018-12-18T22:42:10.474Z,1.87
2018-12-18T22:44:38.668Z,1.90
2018-12-18T22:47:06.492Z,2.10
2018-12-18T22:49:34.377Z,1.80
2018-12-18T22:52:02.255Z,1.40
2018-12-18T22:54:30.286Z,1.40
2018-12-18T22:56:58.199Z,1.83
2018-12-18T22:59:26.243Z,1.20
2018-12-18T23:01:54.326Z,1.37
2018-12-18T23:04:22.172Z,1.10
2018-12-18T23:06:50.450Z,1.13
2018-12-18T23:09:19.294Z,1.70
2018-12-18T23:11:47.143Z,1.47
2018-12-18T23:14:15.163Z,1.37
2018-12-18T23:16:43.257Z,1.30
2018-12-18T23:19:11.301Z,1.50
2018-12-18T23:21:39.359Z,1.10
2018-12-18T23:24:07.180Z,1.00
2018-12-18T23:26:36.306Z,1.27
2018-12-18T23:29:04.220Z,1.30
2018-12-18T23:31:32.272Z,1.80
2018-12-18T23:34:15.276Z,1.70
2018-12-18T23:36:43.161Z,1.87
2018-12-18T23:39:11.387Z,1.70
2018-12-18T23:41:39.210Z,2.07
2018-12-18T23:44:07.342Z,3.03
2018-12-18T23:46:35.136Z,2.80
2018-12-18T23:49:03.047Z,1.97
2018-12-18T23:51:30.861Z,1.93
2018-12-18T23:53:58.675Z,2.30
2018-12-18T23:56:26.496Z,2.33
2018-12-18T23:58:54.388Z,2.00
